createdAt,value
2019-05-29T00:02:15.485Z,99.90
2019-05-29T00:04:46.560Z,99.90
2019-05-29T00:07:16.264Z,99.90
2019-05-29T00:09:48.412Z,99.90
2019-05-29T00:12:20.895Z,99.90
2019-05-29T00:14:50.743Z,99.90
2019-05-29T00:17:20.944Z,99.90
2019-05-29T00:19:50.556Z,99.90
2019-05-29T00:22:20.701Z,99.90
2019-05-29T00:24:57.788Z,99.90
2019-05-29T00:27:34.433Z,99.90
2019-05-29T00:30:04.620Z,99.90
2019-05-29T00:32:36.030Z,99.90
2019-05-29T00:35:08.248Z,99.90
2019-05-29T00:37:41.356Z,99.90
2019-05-29T00:40:17.128Z,99.90
2019-05-29T00:42:48.484Z,99.90
2019-05-29T00:45:19.559Z,99.90
2019-05-29T00:47:50.357Z,99.90
2019-05-29T00:50:20.022Z,99.90
2019-05-29T00:52:51.036Z,99.90
2019-05-29T00:55:21.864Z,99.90
2019-05-29T00:57:52.209Z,99.90
2019-05-29T01:00:22.644Z,99.90
2019-05-29T01:02:52.601Z,99.90
2019-05-29T01:05:22.579Z,99.90
2019-05-29T01:07:53.039Z,99.90
2019-05-29T01:10:24.135Z,99.90
2019-05-29T01:12:53.942Z,99.90
2019-05-29T01:15:25.733Z,99.90
2019-05-29T01:17:55.399Z,99.90
2019-05-29T01:23:01.232Z,99.90
2019-05-29T01:25:32.668Z,99.90
2019-05-29T01:28:10.452Z,99.90
2019-05-29T01:30:46.351Z,99.90
2019-05-29T01:33:20.014Z,99.90
2019-05-29T01:35:48.516Z,99.90
2019-05-29T01:38:19.281Z,99.90
2019-05-29T01:40:49.108Z,99.90
2019-05-29T01:43:19.320Z,99.90
2019-05-29T01:45:48.980Z,99.90
2019-05-29T01:48:19.292Z,99.90
2019-05-29T01:50:48.884Z,99.90
2019-05-29T01:53:19.529Z,99.90
2019-05-29T01:55:50.018Z,99.90
2019-05-29T01:58:20.440Z,99.90
2019-05-29T02:00:50.197Z,99.90
2019-05-29T02:03:19.862Z,99.90
2019-05-29T02:05:49.299Z,99.90
2019-05-29T02:08:18.576Z,99.90
2019-05-29T02:10:47.884Z,99.90
2019-05-29T02:13:17.291Z,99.90
2019-05-29T02:15:46.724Z,99.90
2019-05-29T02:18:16.790Z,99.90
2019-05-29T02:20:49.475Z,99.90
2019-05-29T02:23:26.336Z,99.90
2019-05-29T02:25:55.676Z,99.90
2019-05-29T02:28:26.710Z,99.90
2019-05-29T02:31:02.460Z,99.90
2019-05-29T02:33:32.952Z,99.90
2019-05-29T02:36:02.289Z,99.90
2019-05-29T02:38:31.624Z,99.90
2019-05-29T02:41:00.883Z,99.90
2019-05-29T02:43:30.274Z,99.90
2019-05-29T02:45:59.675Z,99.90
2019-05-29T02:48:30.078Z,99.90
2019-05-29T02:51:00.240Z,99.90
2019-05-29T02:53:30.859Z,99.90
2019-05-29T02:56:02.175Z,99.90
2019-05-29T02:58:31.819Z,99.90
2019-05-29T03:01:01.729Z,99.90
2019-05-29T03:06:06.648Z,99.90
2019-05-29T03:08:36.572Z,99.90
2019-05-29T03:11:06.015Z,99.90
2019-05-29T03:13:35.510Z,99.90
2019-05-29T03:16:11.731Z,99.90
2019-05-29T03:18:36.238Z,99.90
2019-05-29T03:21:05.649Z,99.90
2019-05-29T03:23:36.098Z,99.90
2019-05-29T03:26:06.008Z,99.90
2019-05-29T03:28:35.883Z,99.90
2019-05-29T03:31:11.572Z,99.90
2019-05-29T03:33:49.213Z,99.90
2019-05-29T03:36:12.222Z,99.90
2019-05-29T03:38:41.540Z,99.90
2019-05-29T03:41:10.826Z,99.90
2019-05-29T03:43:40.165Z,99.90
2019-05-29T03:46:26.412Z,99.90
2019-05-29T03:48:40.653Z,99.90
2019-05-29T03:51:09.979Z,99.90
2019-05-29T03:53:39.267Z,99.90
2019-05-29T03:56:08.693Z,99.90
2019-05-29T03:58:38.343Z,99.90
2019-05-29T04:01:07.715Z,99.90
2019-05-29T04:03:38.052Z,99.90
2019-05-29T04:06:07.828Z,99.90
2019-05-29T04:08:38.483Z,99.90
2019-05-29T04:11:08.279Z,99.90
2019-05-29T04:13:38.791Z,99.90
2019-05-29T04:16:09.447Z,99.90
2019-05-29T04:18:40.216Z,99.90
2019-05-29T04:21:10.482Z,99.90
2019-05-29T04:23:39.991Z,99.90
2019-05-29T04:26:10.977Z,99.90
2019-05-29T04:28:41.761Z,99.90
2019-05-29T04:31:11.144Z,99.90
2019-05-29T04:33:40.487Z,99.90
2019-05-29T04:36:09.760Z,99.90
2019-05-29T04:38:40.399Z,99.90
2019-05-29T04:41:10.032Z,99.90
2019-05-29T04:43:39.986Z,99.90
2019-05-29T04:46:09.632Z,99.90
2019-05-29T04:48:40.381Z,99.90
2019-05-29T04:51:10.011Z,99.90
2019-05-29T04:53:39.985Z,99.90
2019-05-29T04:56:09.572Z,99.90
2019-05-29T04:58:39.822Z,99.90
2019-05-29T05:01:09.140Z,99.90
2019-05-29T05:03:39.430Z,99.90
2019-05-29T05:06:09.041Z,99.90
2019-05-29T05:08:39.514Z,99.90
2019-05-29T05:11:09.958Z,99.90
2019-05-29T05:13:39.777Z,99.90
2019-05-29T05:16:09.192Z,99.90
2019-05-29T05:18:38.581Z,99.90
2019-05-29T05:21:08.288Z,99.90
2019-05-29T05:23:38.259Z,99.90
2019-05-29T05:26:08.104Z,99.90
2019-05-29T05:28:38.589Z,99.90
2019-05-29T05:31:08.836Z,99.90
2019-05-29T05:33:45.095Z,99.90
2019-05-29T05:36:14.438Z,99.90
2019-05-29T05:38:43.835Z,99.90
2019-05-29T05:41:13.749Z,99.90
2019-05-29T05:43:43.293Z,99.90
2019-05-29T05:46:14.575Z,99.90
2019-05-29T05:48:43.957Z,99.90
2019-05-29T05:51:13.377Z,99.90
2019-05-29T05:53:42.763Z,99.90
2019-05-29T05:56:12.250Z,99.90
2019-05-29T05:58:43.511Z,99.90
2019-05-29T06:01:12.913Z,99.90
2019-05-29T06:03:42.681Z,99.90
2019-05-29T06:06:12.083Z,99.90
2019-05-29T06:08:45.350Z,99.90
2019-05-29T06:11:14.838Z,99.90
2019-05-29T06:13:44.216Z,99.90
2019-05-29T06:21:23.408Z,99.90
2019-05-29T06:23:52.791Z,99.90
2019-05-29T06:26:22.129Z,99.90
2019-05-29T06:28:51.536Z,99.90
2019-05-29T06:31:21.708Z,99.90
2019-05-29T06:33:58.392Z,99.90
2019-05-29T06:36:28.074Z,99.90
2019-05-29T06:38:58.455Z,99.90
2019-05-29T06:41:28.184Z,99.90
2019-05-29T06:43:57.585Z,99.90
2019-05-29T06:46:27.063Z,99.90
2019-05-29T06:49:00.712Z,99.90
2019-05-29T06:51:27.601Z,99.90
2019-05-29T06:53:56.904Z,99.90
2019-05-29T06:56:26.315Z,99.90
2019-05-29T06:58:55.652Z,99.90
2019-05-29T07:01:25.092Z,99.90
2019-05-29T07:04:10.686Z,99.90
2019-05-29T07:09:00.737Z,99.90
2019-05-29T07:11:31.676Z,99.90
2019-05-29T07:14:01.470Z,99.90
2019-05-29T07:19:24.714Z,99.90
2019-05-29T07:21:45.017Z,99.90
2019-05-29T07:24:15.638Z,99.90
2019-05-29T07:26:45.493Z,99.90
2019-05-29T07:29:15.015Z,99.90
2019-05-29T07:31:47.039Z,99.90
2019-05-29T07:34:16.667Z,99.90
2019-05-29T07:36:46.140Z,99.90
2019-05-29T07:39:15.568Z,99.90
2019-05-29T07:41:45.767Z,99.90
2019-05-29T07:44:15.319Z,99.90
2019-05-29T07:46:47.121Z,99.90
2019-05-29T07:49:16.982Z,99.90
2019-05-29T07:51:46.969Z,99.90
2019-05-29T07:54:16.525Z,99.90
2019-05-29T07:56:46.604Z,99.90
2019-05-29T07:59:16.263Z,99.90
2019-05-29T08:01:52.325Z,99.90
2019-05-29T08:04:21.681Z,99.90
2019-05-29T08:06:54.361Z,99.90
2019-05-29T08:09:22.148Z,99.90
2019-05-29T08:11:51.662Z,99.90
2019-05-29T08:14:21.089Z,99.90
2019-05-29T08:16:50.413Z,99.90
2019-05-29T08:19:20.779Z,99.90
2019-05-29T08:21:50.563Z,99.90
2019-05-29T08:24:24.574Z,99.90
2019-05-29T08:26:51.328Z,99.90
2019-05-29T08:29:21.433Z,99.90
2019-05-29T08:31:52.106Z,99.90
2019-05-29T08:34:21.757Z,99.90
2019-05-29T08:37:05.986Z,99.90
2019-05-29T08:39:35.917Z,99.90
2019-05-29T08:42:21.077Z,99.90
2019-05-29T08:44:29.277Z,99.90
2019-05-29T08:47:09.736Z,99.90
2019-05-29T08:49:29.788Z,99.90
2019-05-29T08:52:11.192Z,99.90
2019-05-29T08:54:30.370Z,99.90
2019-05-29T08:59:34.648Z,98.00
2019-05-29T09:02:04.213Z,99.00
2019-05-29T09:04:33.596Z,96.90
2019-05-29T09:07:03.292Z,95.30
2019-05-29T09:09:32.640Z,93.20
2019-05-29T09:12:03.587Z,92.30
2019-05-29T09:14:32.915Z,88.20
2019-05-29T09:17:02.432Z,90.90
2019-05-29T09:19:31.868Z,91.60
2019-05-29T09:22:01.293Z,92.80
2019-05-29T09:24:31.532Z,93.10
2019-05-29T09:27:01.108Z,94.00
2019-05-29T09:29:31.082Z,91.60
2019-05-29T09:32:00.520Z,92.80
2019-05-29T09:34:29.934Z,94.50
2019-05-29T09:37:00.961Z,92.60
2019-05-29T09:39:30.323Z,89.70
2019-05-29T09:42:00.066Z,87.30
2019-05-29T09:44:38.384Z,84.90
2019-05-29T09:47:00.724Z,84.70
2019-05-29T09:49:30.320Z,82.70
2019-05-29T09:51:59.969Z,83.50
2019-05-29T09:54:29.640Z,74.90
2019-05-29T09:56:59.962Z,73.90
2019-05-29T09:59:30.641Z,78.70
2019-05-29T10:02:04.941Z,73.30
2019-05-29T10:04:31.008Z,72.60
2019-05-29T10:07:02.165Z,70.70
2019-05-29T10:09:31.713Z,69.20
2019-05-29T10:12:04.956Z,72.60
2019-05-29T10:14:33.702Z,68.10
2019-05-29T10:17:11.025Z,66.90
2019-05-29T10:19:34.405Z,68.20
2019-05-29T10:22:05.563Z,68.50
2019-05-29T10:24:35.285Z,66.90
2019-05-29T10:27:06.224Z,66.90
2019-05-29T10:29:35.883Z,66.00
2019-05-29T10:32:05.455Z,65.30
2019-05-29T10:34:34.933Z,64.00
2019-05-29T10:37:04.424Z,64.30
2019-05-29T10:39:40.739Z,59.70
2019-05-29T10:42:20.500Z,60.60
2019-05-29T10:44:49.093Z,59.60
2019-05-29T10:47:18.564Z,59.20
2019-05-29T10:49:49.667Z,58.60
2019-05-29T10:52:19.366Z,62.90
2019-05-29T10:54:48.899Z,62.30
2019-05-29T10:57:18.331Z,57.80
2019-05-29T10:59:48.743Z,59.10
2019-05-29T11:02:18.404Z,61.90
2019-05-29T11:04:52.074Z,58.10
2019-05-29T11:07:19.028Z,60.00
2019-05-29T11:09:48.565Z,61.90
2019-05-29T11:12:18.368Z,61.10
2019-05-29T11:14:48.521Z,65.40
2019-05-29T11:17:18.085Z,68.00
2019-05-29T11:19:53.620Z,74.90
2019-05-29T11:22:26.486Z,75.70
2019-05-29T11:24:54.546Z,75.00
2019-05-29T11:27:26.127Z,75.40
2019-05-29T11:29:56.970Z,76.10
2019-05-29T11:32:26.784Z,76.90
2019-05-29T11:34:57.456Z,76.80
2019-05-29T11:37:27.070Z,78.00
2019-05-29T11:40:00.094Z,79.80
2019-05-29T11:42:33.760Z,86.10
2019-05-29T11:45:03.913Z,77.90
2019-05-29T11:47:33.622Z,65.60
2019-05-29T11:50:18.702Z,62.30
2019-05-29T11:52:42.782Z,61.70
2019-05-29T11:55:08.157Z,75.90
2019-05-29T11:57:39.680Z,80.20
2019-05-29T12:00:19.651Z,73.40
2019-05-29T12:02:40.997Z,67.90
2019-05-29T12:05:10.789Z,70.30
2019-05-29T12:07:40.193Z,70.10
2019-05-29T12:10:10.009Z,64.90
2019-05-29T12:12:39.656Z,63.30
2019-05-29T12:15:14.456Z,63.10
2019-05-29T12:17:41.125Z,70.70
2019-05-29T12:20:26.982Z,67.90
2019-05-29T12:25:19.581Z,66.30
2019-05-29T12:27:49.390Z,62.90
2019-05-29T12:30:19.033Z,64.60
2019-05-29T12:32:48.496Z,63.20
2019-05-29T12:35:18.068Z,65.90
2019-05-29T12:37:47.418Z,65.90
2019-05-29T12:40:18.500Z,66.60
2019-05-29T12:42:47.975Z,65.70
2019-05-29T12:45:17.516Z,60.00
2019-05-29T12:47:46.955Z,60.70
2019-05-29T12:50:16.964Z,61.50
2019-05-29T12:52:46.556Z,63.70
2019-05-29T12:55:16.112Z,60.70
2019-05-29T12:57:45.651Z,62.20
2019-05-29T13:00:15.483Z,61.30
2019-05-29T13:02:44.881Z,59.80
2019-05-29T13:05:20.202Z,62.30
2019-05-29T13:07:45.726Z,63.00
2019-05-29T13:10:29.313Z,61.90
2019-05-29T13:12:46.723Z,63.20
2019-05-29T13:15:17.720Z,62.00
2019-05-29T13:20:22.445Z,61.20
2019-05-29T13:23:02.797Z,64.60
2019-05-29T13:25:32.135Z,69.20
2019-05-29T13:28:03.074Z,65.10
2019-05-29T13:30:33.881Z,66.40
2019-05-29T13:33:06.740Z,67.50
2019-05-29T13:35:34.405Z,66.10
2019-05-29T13:38:07.460Z,66.40
2019-05-29T13:40:43.888Z,65.80
2019-05-29T13:43:16.617Z,66.70
2019-05-29T13:45:46.112Z,65.30
2019-05-29T13:48:15.532Z,67.50
2019-05-29T13:50:48.609Z,64.40
2019-05-29T13:53:17.013Z,66.00
2019-05-29T13:55:53.345Z,67.60
2019-05-29T13:58:22.663Z,70.30
2019-05-29T14:00:53.484Z,68.70
2019-05-29T14:03:22.824Z,67.20
2019-05-29T14:05:52.344Z,68.10
2019-05-29T14:08:21.784Z,65.10
2019-05-29T14:10:51.291Z,66.40
2019-05-29T14:13:20.905Z,65.40
2019-05-29T14:15:50.374Z,69.90
2019-05-29T14:18:19.963Z,69.90
2019-05-29T14:20:49.658Z,69.70
2019-05-29T14:23:19.030Z,71.00
2019-05-29T14:25:48.972Z,73.00
2019-05-29T14:28:18.388Z,74.50
2019-05-29T14:30:51.297Z,73.70
2019-05-29T14:33:22.337Z,72.40
2019-05-29T14:35:51.780Z,71.70
2019-05-29T14:38:21.185Z,71.80
2019-05-29T14:40:50.809Z,70.50
2019-05-29T14:43:28.690Z,70.30
2019-05-29T14:45:58.147Z,69.40
2019-05-29T14:48:27.656Z,69.70
2019-05-29T14:50:56.998Z,69.80
2019-05-29T14:53:26.425Z,70.40
2019-05-29T14:55:55.840Z,68.60
2019-05-29T14:58:25.341Z,67.50
2019-05-29T15:00:54.802Z,71.90
2019-05-29T15:03:24.253Z,72.00
2019-05-29T15:05:53.927Z,68.60
2019-05-29T15:08:23.588Z,71.20
2019-05-29T15:10:53.036Z,71.80
2019-05-29T15:13:22.846Z,74.20
2019-05-29T15:15:52.140Z,75.10
2019-05-29T15:18:21.496Z,75.70
2019-05-29T15:20:50.884Z,75.30
2019-05-29T15:23:20.304Z,74.20
2019-05-29T15:25:50.056Z,74.70
2019-05-29T15:28:19.604Z,74.00
2019-05-29T15:30:49.917Z,76.50
2019-05-29T15:33:19.457Z,76.90
2019-05-29T15:35:48.905Z,77.60
2019-05-29T15:38:18.313Z,76.50
2019-05-29T15:40:47.799Z,80.10
2019-05-29T15:43:17.967Z,79.20
2019-05-29T15:45:54.769Z,84.90
2019-05-29T15:48:24.176Z,83.80
2019-05-29T15:50:53.578Z,85.70
2019-05-29T15:53:24.988Z,88.80
2019-05-29T15:55:54.543Z,93.20
2019-05-29T15:58:30.986Z,93.70
2019-05-29T16:01:01.467Z,92.50
2019-05-29T16:03:31.532Z,95.90
2019-05-29T16:06:00.956Z,94.60
2019-05-29T16:08:30.480Z,96.60
2019-05-29T16:10:59.852Z,97.00
2019-05-29T16:13:29.654Z,97.50
2019-05-29T16:15:59.206Z,97.70
2019-05-29T16:18:29.770Z,97.00
2019-05-29T16:20:59.872Z,99.90
2019-05-29T16:23:35.609Z,99.80
2019-05-29T16:26:00.249Z,99.30
2019-05-29T16:28:29.687Z,98.80
2019-05-29T16:30:59.068Z,98.70
2019-05-29T16:33:28.523Z,97.40
2019-05-29T16:35:58.007Z,99.00
2019-05-29T16:38:27.341Z,99.20
2019-05-29T16:40:56.767Z,97.60
2019-05-29T16:43:27.385Z,98.10
2019-05-29T16:45:56.849Z,97.80
2019-05-29T16:48:26.253Z,97.00
2019-05-29T16:50:55.732Z,97.40
2019-05-29T16:53:25.532Z,96.10
2019-05-29T16:55:54.965Z,97.30
2019-05-29T16:58:24.992Z,99.10
2019-05-29T17:00:54.640Z,97.80
2019-05-29T17:03:24.095Z,97.00
2019-05-29T17:05:53.457Z,99.00
2019-05-29T17:08:24.252Z,99.00
2019-05-29T17:10:54.183Z,99.80
2019-05-29T17:13:24.674Z,99.50
2019-05-29T17:16:00.641Z,99.30
2019-05-29T17:18:29.995Z,99.90
2019-05-29T17:20:59.391Z,99.90
2019-05-29T17:23:28.842Z,99.90
2019-05-29T17:26:10.087Z,99.90
2019-05-29T17:28:29.321Z,99.90
2019-05-29T17:31:02.151Z,99.90
2019-05-29T17:33:29.792Z,99.90
2019-05-29T17:35:59.209Z,99.30
2019-05-29T17:38:29.434Z,99.50
2019-05-29T17:41:02.257Z,99.90
2019-05-29T17:46:13.664Z,99.90
2019-05-29T17:48:45.358Z,99.90
2019-05-29T17:53:59.779Z,99.90
2019-05-29T17:56:36.586Z,99.90
2019-05-29T17:59:07.451Z,99.90
2019-05-29T18:01:37.980Z,99.90
2019-05-29T18:04:07.439Z,99.90
2019-05-29T18:06:37.387Z,99.90
2019-05-29T18:09:07.191Z,99.90
2019-05-29T18:11:39.448Z,99.90
2019-05-29T18:14:08.724Z,99.90
2019-05-29T18:16:38.312Z,99.90
2019-05-29T18:19:25.962Z,99.90
2019-05-29T18:21:57.878Z,99.90
2019-05-29T18:24:28.078Z,99.90
2019-05-29T18:26:59.134Z,99.90
2019-05-29T18:29:31.363Z,99.90
2019-05-29T18:32:20.331Z,99.90
2019-05-29T18:34:53.585Z,99.90
2019-05-29T18:37:28.346Z,99.90
2019-05-29T18:40:08.594Z,99.90
2019-05-29T18:42:36.217Z,99.90
2019-05-29T18:45:19.738Z,99.90
2019-05-29T18:47:38.857Z,99.90
2019-05-29T18:50:08.708Z,99.90
2019-05-29T18:52:39.122Z,99.90
2019-05-29T18:55:08.840Z,99.90
2019-05-29T18:57:38.264Z,99.90
2019-05-29T19:00:07.958Z,99.90
2019-05-29T19:02:39.373Z,99.90
2019-05-29T19:05:13.068Z,99.90
2019-05-29T19:07:48.617Z,99.90
2019-05-29T19:10:24.220Z,99.90
2019-05-29T19:12:53.703Z,99.90
2019-05-29T19:15:23.867Z,99.90
2019-05-29T19:17:58.433Z,99.90
2019-05-29T19:20:28.535Z,99.90
2019-05-29T19:22:59.818Z,99.90
2019-05-29T19:25:29.220Z,99.90
2019-05-29T19:28:00.405Z,99.90
2019-05-29T19:30:30.912Z,99.90
2019-05-29T19:33:00.463Z,99.90
2019-05-29T19:35:36.423Z,99.90
2019-05-29T19:38:06.200Z,99.90
2019-05-29T19:40:37.161Z,99.90
2019-05-29T19:43:06.622Z,99.90
2019-05-29T19:45:41.993Z,99.90
2019-05-29T19:48:18.180Z,99.90
2019-05-29T19:50:53.848Z,99.90
2019-05-29T19:53:25.174Z,99.90
2019-05-29T19:55:57.454Z,99.90
2019-05-29T19:58:27.730Z,99.90
2019-05-29T20:00:57.236Z,99.90
2019-05-29T20:03:38.869Z,99.90
2019-05-29T20:06:17.922Z,99.90
2019-05-29T20:08:47.288Z,99.90
2019-05-29T20:11:17.732Z,99.90
2019-05-29T20:13:49.832Z,99.90
2019-05-29T20:16:22.681Z,99.90
2019-05-29T20:18:52.047Z,99.90
2019-05-29T20:21:22.433Z,99.90
2019-05-29T20:23:53.829Z,99.90
2019-05-29T20:26:27.223Z,99.90
2019-05-29T20:28:56.659Z,99.90
2019-05-29T20:31:44.514Z,99.90
2019-05-29T20:34:19.769Z,99.90
2019-05-29T20:36:55.519Z,99.90
2019-05-29T20:39:40.429Z,99.90
2019-05-29T20:42:17.842Z,99.90
2019-05-29T20:44:52.473Z,99.90
2019-05-29T20:47:22.564Z,99.90
2019-05-29T20:50:04.837Z,99.90
2019-05-29T20:52:35.192Z,99.90
2019-05-29T20:55:09.993Z,99.90
2019-05-29T20:57:40.060Z,99.90
2019-05-29T21:00:10.676Z,99.90
2019-05-29T21:02:40.501Z,99.90
2019-05-29T21:05:11.773Z,99.90
2019-05-29T21:07:41.282Z,99.90
2019-05-29T21:10:13.596Z,99.90
2019-05-29T21:12:47.052Z,99.90
2019-05-29T21:15:16.323Z,99.90
2019-05-29T21:17:45.632Z,99.90
2019-05-29T21:20:16.130Z,99.90
2019-05-29T21:22:46.416Z,99.90
2019-05-29T21:25:19.314Z,99.90
2019-05-29T21:27:49.662Z,99.90
2019-05-29T21:30:22.860Z,99.90
2019-05-29T21:32:53.321Z,99.90
2019-05-29T21:35:28.789Z,99.90
2019-05-29T21:38:04.324Z,99.90
2019-05-29T21:40:40.344Z,99.90
2019-05-29T21:43:09.975Z,99.90
2019-05-29T21:45:39.352Z,99.90
2019-05-29T21:48:16.336Z,99.90
2019-05-29T21:50:51.071Z,99.90
2019-05-29T21:55:59.757Z,99.90
2019-05-29T21:58:29.188Z,99.90
2019-05-29T22:00:58.720Z,99.90
2019-05-29T22:03:35.666Z,99.90
2019-05-29T22:06:05.800Z,99.90
2019-05-29T22:08:35.928Z,99.90
2019-05-29T22:11:05.357Z,99.90
2019-05-29T22:13:40.839Z,99.90
2019-05-29T22:16:11.882Z,99.90
2019-05-29T22:18:54.969Z,99.90
2019-05-29T22:21:24.603Z,99.90
2019-05-29T22:24:10.291Z,99.90
2019-05-29T22:26:39.664Z,99.90
2019-05-29T22:29:18.022Z,99.90
2019-05-29T22:34:30.773Z,99.90
2019-05-29T22:37:00.163Z,99.90
2019-05-29T22:39:47.740Z,99.90
2019-05-29T22:42:17.725Z,99.90
2019-05-29T22:44:47.784Z,99.90
2019-05-29T22:47:19.735Z,99.90
2019-05-29T22:49:49.909Z,99.90
2019-05-29T22:52:25.432Z,99.90
2019-05-29T22:54:56.170Z,99.90
2019-05-29T22:57:25.696Z,99.90
2019-05-29T23:00:05.451Z,99.90
2019-05-29T23:02:35.275Z,99.90
2019-05-29T23:05:05.486Z,99.90
2019-05-29T23:07:41.417Z,99.90
2019-05-29T23:10:11.925Z,99.90
2019-05-29T23:12:47.407Z,99.90
2019-05-29T23:15:18.427Z,99.90
2019-05-29T23:17:47.796Z,99.90
2019-05-29T23:20:17.740Z,99.90
2019-05-29T23:22:48.086Z,99.90
2019-05-29T23:25:17.576Z,99.90
2019-05-29T23:27:46.933Z,99.90
2019-05-29T23:30:30.587Z,99.90
2019-05-29T23:33:01.172Z,99.90
2019-05-29T23:35:30.607Z,99.90
2019-05-29T23:38:01.337Z,99.90
2019-05-29T23:40:31.846Z,99.90
2019-05-29T23:43:01.557Z,99.90
2019-05-29T23:45:31.257Z,99.90
2019-05-29T23:48:01.817Z,99.90
2019-05-29T23:53:06.253Z,99.90
2019-05-29T23:55:36.519Z,99.90
2019-05-29T23:58:12.743Z,99.90
